Fivemiletown, United Kingdom
Current Conditions -  °F | °C
As of 3:50 PM on Tuesday 27 Jan 2015 (Local Time) from EGAE Reporting Station
Broken Clouds Broken Clouds  
Wind Chill: 39°   Ceiling: 1700
Heat Index: 46°   Visibility: 6mi
Dew Point: 41°   Wind: 21mph
Humidity: 81%   Direction: 230°SW
Pressure: 30.06"   Gusts: NA
Location:  54.38°N, 7.3°W
Report Text: EGAE 271550Z 23018KT 9999 SCT010 BKN017 08/05 Q1018
Loading
Personal Weather Stations






























Interactive Weather Map New forecast layout! Learn more

10-Day Weather Forecast

Advertisements
Track Severe Weather on mobile